createdAt,value
2023-04-24T00:00:47.249Z,83.36
2023-04-24T00:02:01.396Z,83.52
2023-04-24T00:03:04.322Z,83.84
2023-04-24T00:04:07.684Z,83.75
2023-04-24T00:05:09.586Z,84.26
2023-04-24T00:06:11.281Z,83.78
2023-04-24T00:07:13.414Z,83.81
2023-04-24T00:08:15.091Z,83.82
2023-04-24T00:09:16.803Z,83.85
2023-04-24T00:10:19.246Z,83.60
2023-04-24T00:11:20.918Z,83.41
2023-04-24T00:12:38.623Z,83.86
2023-04-24T00:13:40.812Z,83.62
2023-04-24T00:14:42.284Z,83.60
2023-04-24T00:15:43.867Z,83.63
2023-04-24T00:16:45.557Z,83.73
2023-04-24T00:17:47.998Z,83.77
2023-04-24T00:18:49.605Z,83.55
2023-04-24T00:19:51.664Z,83.69
2023-04-24T00:20:53.224Z,83.71
2023-04-24T00:21:55.071Z,83.37
2023-04-24T00:22:56.534Z,83.80
2023-04-24T00:23:58.012Z,83.66
2023-04-24T00:24:59.694Z,83.65
2023-04-24T00:26:01.166Z,83.66
2023-04-24T00:27:02.953Z,83.63
2023-04-24T00:28:04.753Z,83.84
2023-04-24T00:29:06.245Z,83.82
2023-04-24T00:30:08.216Z,83.79
2023-04-24T00:31:09.797Z,83.66
2023-04-24T00:32:11.883Z,84.09
2023-04-24T00:33:13.525Z,83.57
2023-04-24T00:34:14.977Z,83.71
2023-04-24T00:35:16.786Z,83.68
2023-04-24T00:36:20.852Z,83.69
2023-04-24T00:37:22.432Z,83.86
2023-04-24T00:38:25.010Z,84.00
2023-04-24T00:39:26.579Z,83.72
2023-04-24T00:40:28.672Z,83.64
2023-04-24T00:41:30.760Z,83.52
2023-04-24T00:42:32.457Z,83.90
2023-04-24T00:43:34.117Z,83.94
2023-04-24T00:44:35.760Z,83.87
2023-04-24T00:45:37.416Z,83.72
2023-04-24T00:46:39.107Z,83.67
2023-04-24T00:47:42.120Z,83.59
2023-04-24T00:48:44.213Z,83.62
2023-04-24T00:49:46.280Z,84.12
2023-04-24T00:50:47.838Z,83.79
2023-04-24T00:51:51.487Z,83.95
2023-04-24T00:52:53.235Z,84.01
2023-04-24T00:53:55.007Z,84.12
2023-04-24T00:54:56.487Z,83.90
2023-04-24T00:55:58.265Z,84.11
2023-04-24T00:57:00.805Z,84.10
2023-04-24T00:58:02.521Z,84.01
2023-04-24T00:59:04.889Z,84.26
2023-04-24T01:00:12.023Z,84.24
2023-04-24T01:01:14.526Z,84.12
2023-04-24T01:02:16.383Z,84.27
2023-04-24T01:03:18.848Z,84.33
2023-04-24T01:04:21.295Z,83.93
2023-04-24T01:05:23.403Z,84.11
2023-04-24T01:06:28.297Z,84.20
2023-04-24T01:07:30.095Z,84.22
2023-04-24T01:08:31.732Z,84.39
2023-04-24T01:09:33.459Z,84.50
2023-04-24T01:10:36.782Z,84.32
2023-04-24T01:11:38.440Z,84.45
2023-04-24T01:12:40.373Z,84.63
2023-04-24T01:13:41.974Z,84.47
2023-04-24T01:14:45.582Z,84.32
2023-04-24T01:15:47.808Z,84.14
2023-04-24T01:16:49.399Z,84.00
2023-04-24T01:17:51.344Z,83.89
2023-04-24T01:18:52.937Z,83.94
2023-04-24T01:19:57.015Z,84.09
2023-04-24T01:21:06.661Z,84.12
2023-04-24T01:22:12.107Z,84.16
2023-04-24T01:23:13.895Z,84.25
2023-04-24T01:24:15.691Z,84.54
2023-04-24T01:25:17.527Z,84.52
2023-04-24T01:26:20.525Z,84.68
2023-04-24T01:27:22.262Z,84.46
2023-04-24T01:28:24.424Z,84.45
2023-04-24T01:29:25.940Z,84.47
2023-04-24T01:32:00.255Z,84.91
2023-04-24T01:33:02.824Z,84.64
2023-04-24T01:34:04.568Z,84.81
2023-04-24T01:35:07.056Z,85.09
2023-04-24T01:36:11.184Z,85.37
2023-04-24T01:37:12.831Z,85.21
2023-04-24T01:38:14.794Z,84.89
2023-04-24T01:39:17.074Z,85.04
2023-04-24T01:40:18.625Z,85.24
2023-04-24T01:41:20.755Z,85.05
2023-04-24T01:42:22.860Z,85.18
2023-04-24T01:43:24.863Z,85.43
2023-04-24T01:44:27.009Z,85.28
2023-04-24T01:45:28.604Z,85.19
2023-04-24T01:46:31.884Z,85.29
2023-04-24T01:47:34.068Z,85.23
2023-04-24T01:48:35.873Z,85.35
2023-04-24T01:49:41.775Z,85.40
2023-04-24T01:50:43.404Z,85.38
2023-04-24T01:51:47.241Z,85.38
2023-04-24T01:52:49.033Z,85.16
2023-04-24T01:53:50.901Z,85.30
2023-04-24T01:54:52.826Z,85.51
2023-04-24T01:55:54.436Z,85.55
2023-04-24T01:56:56.089Z,85.50
2023-04-24T01:58:00.019Z,85.46
2023-04-24T01:59:03.624Z,85.70
2023-04-24T02:00:07.471Z,85.52
2023-04-24T02:01:26.689Z,85.44
2023-04-24T02:02:29.271Z,85.58
2023-04-24T02:03:32.297Z,85.52
2023-04-24T02:04:33.912Z,85.53
2023-04-24T02:05:35.443Z,85.60
2023-04-24T02:06:38.460Z,85.48
2023-04-24T02:07:40.235Z,85.32
2023-04-24T02:08:42.051Z,85.67
2023-04-24T02:09:43.678Z,85.56
2023-04-24T02:10:46.300Z,85.79
2023-04-24T02:11:47.951Z,85.60
2023-04-24T02:12:49.425Z,85.44
2023-04-24T02:13:51.850Z,85.59
2023-04-24T02:14:53.383Z,85.52
2023-04-24T02:15:54.814Z,85.61
2023-04-24T02:16:56.234Z,85.26
2023-04-24T02:17:58.193Z,85.53
2023-04-24T02:18:59.880Z,85.56
2023-04-24T02:20:01.337Z,85.68
2023-04-24T02:21:03.025Z,85.53
2023-04-24T02:22:04.734Z,85.51
2023-04-24T02:23:06.262Z,85.69
2023-04-24T02:24:07.704Z,85.84
2023-04-24T02:25:09.503Z,85.69
2023-04-24T02:26:11.406Z,85.74
2023-04-24T02:27:13.120Z,85.89
2023-04-24T02:28:14.774Z,85.77
2023-04-24T02:29:16.351Z,85.85
2023-04-24T02:30:17.869Z,85.36
2023-04-24T02:31:20.530Z,85.56
2023-04-24T02:32:23.216Z,85.27
2023-04-24T02:33:24.923Z,85.45
2023-04-24T02:34:26.597Z,85.58
2023-04-24T02:35:28.119Z,85.55
2023-04-24T02:36:30.666Z,85.94
2023-04-24T02:37:32.471Z,85.90
2023-04-24T02:38:34.069Z,85.86
2023-04-24T02:39:35.681Z,86.01
2023-04-24T02:40:37.159Z,85.79
2023-04-24T02:41:38.581Z,85.76
2023-04-24T02:42:40.106Z,86.03
2023-04-24T02:43:41.750Z,86.02
2023-04-24T02:44:43.265Z,85.79
2023-04-24T02:45:44.975Z,85.77
2023-04-24T02:46:46.453Z,85.69
2023-04-24T02:47:47.926Z,86.07
2023-04-24T02:48:49.355Z,86.20
2023-04-24T02:49:50.893Z,85.98
2023-04-24T02:50:52.371Z,85.75
2023-04-24T02:51:53.987Z,85.86
2023-04-24T02:52:55.460Z,86.08
2023-04-24T02:53:57.030Z,85.79
2023-04-24T02:54:58.521Z,85.59
2023-04-24T02:56:00.148Z,85.93
2023-04-24T02:57:01.778Z,85.79
2023-04-24T02:58:03.495Z,85.95
2023-04-24T02:59:05.127Z,85.74
2023-04-24T03:00:07.594Z,85.51
2023-04-24T03:01:10.512Z,85.62
2023-04-24T03:02:12.246Z,85.88
2023-04-24T03:03:14.437Z,85.76
2023-04-24T03:04:17.077Z,85.65
2023-04-24T03:05:18.901Z,85.90
2023-04-24T03:06:21.300Z,85.91
2023-04-24T03:07:24.463Z,85.90
2023-04-24T03:08:25.948Z,85.75
2023-04-24T03:09:27.511Z,85.79
2023-04-24T03:10:29.277Z,86.02
2023-04-24T03:11:30.713Z,85.69
2023-04-24T03:12:32.755Z,85.97
2023-04-24T03:13:34.516Z,85.78
2023-04-24T03:14:35.974Z,85.91
2023-04-24T03:15:37.639Z,86.11
2023-04-24T03:16:39.146Z,85.78
2023-04-24T03:17:42.111Z,86.17
2023-04-24T03:18:43.690Z,86.25
2023-04-24T03:19:45.734Z,86.25
2023-04-24T03:20:47.964Z,85.99
2023-04-24T03:21:50.364Z,85.98
2023-04-24T03:22:52.650Z,86.22
2023-04-24T03:23:55.387Z,86.33
2023-04-24T03:24:57.070Z,86.30
2023-04-24T03:25:58.761Z,86.13
2023-04-24T03:27:00.598Z,86.15
2023-04-24T03:28:25.495Z,86.06
2023-04-24T03:29:34.899Z,86.33
2023-04-24T03:30:37.400Z,86.51
2023-04-24T03:31:39.863Z,86.45
2023-04-24T03:32:41.422Z,86.22
2023-04-24T03:33:44.360Z,86.44
2023-04-24T03:34:46.000Z,86.53
2023-04-24T03:35:49.127Z,86.29
2023-04-24T03:36:50.774Z,86.28
2023-04-24T03:37:52.305Z,86.29
2023-04-24T03:39:14.579Z,86.47
2023-04-24T03:40:22.746Z,86.33
2023-04-24T03:41:24.628Z,86.46
2023-04-24T03:42:30.658Z,86.51
2023-04-24T03:43:33.754Z,86.84
2023-04-24T03:44:36.498Z,86.76
2023-04-24T03:45:38.108Z,86.21
2023-04-24T03:46:39.808Z,86.14
2023-04-24T03:47:41.987Z,86.40
2023-04-24T03:48:43.594Z,86.20
2023-04-24T03:49:45.482Z,86.55
2023-04-24T03:50:47.090Z,86.25
2023-04-24T03:51:48.624Z,86.36
2023-04-24T03:52:53.724Z,86.23
2023-04-24T03:54:07.613Z,86.61
2023-04-24T03:55:13.172Z,86.20
2023-04-24T03:56:18.310Z,86.25
2023-04-24T03:57:19.859Z,85.96
2023-04-24T03:58:31.699Z,86.44
2023-04-24T03:59:33.170Z,86.18
2023-04-24T04:00:48.036Z,86.41
2023-04-24T04:02:18.996Z,86.31
2023-04-24T04:03:21.236Z,86.60
2023-04-24T04:04:23.953Z,86.74
2023-04-24T04:05:25.930Z,86.34
2023-04-24T04:06:27.656Z,86.45
2023-04-24T04:07:30.352Z,86.66
2023-04-24T04:08:32.048Z,86.77
2023-04-24T04:09:34.355Z,86.68
2023-04-24T04:10:36.055Z,86.82
2023-04-24T04:11:39.948Z,86.37
2023-04-24T04:12:41.417Z,86.06
2023-04-24T04:13:43.612Z,86.57
2023-04-24T04:14:45.140Z,86.36
2023-04-24T04:15:46.809Z,86.38
2023-04-24T04:16:48.404Z,86.62
2023-04-24T04:17:50.083Z,86.45
2023-04-24T04:18:51.559Z,86.27
2023-04-24T04:19:53.176Z,86.18
2023-04-24T04:20:54.757Z,86.33
2023-04-24T04:21:56.508Z,86.68
2023-04-24T04:23:08.961Z,86.32
2023-04-24T04:24:21.105Z,86.19
2023-04-24T04:25:23.453Z,86.53
2023-04-24T04:26:25.856Z,86.56
2023-04-24T04:27:35.613Z,86.67
2023-04-24T04:28:40.397Z,86.60
2023-04-24T04:29:42.627Z,86.75
2023-04-24T04:30:45.922Z,86.30
2023-04-24T04:31:47.538Z,86.50
2023-04-24T04:32:49.939Z,86.61
2023-04-24T04:33:51.531Z,86.40
2023-04-24T04:34:54.037Z,86.46
2023-04-24T04:35:57.033Z,86.46
2023-04-24T04:37:02.306Z,86.03
2023-04-24T04:38:43.226Z,86.03
2023-04-24T04:39:56.192Z,86.23
2023-04-24T04:41:00.027Z,86.17
2023-04-24T04:42:04.122Z,86.23
2023-04-24T04:43:13.696Z,86.39
2023-04-24T04:44:18.866Z,86.56
2023-04-24T04:45:20.956Z,86.36
2023-04-24T04:46:42.867Z,86.70
2023-04-24T04:47:52.996Z,86.66
2023-04-24T04:48:54.792Z,86.69
2023-04-24T04:49:56.309Z,86.81
2023-04-24T04:50:59.885Z,86.81
2023-04-24T04:52:01.925Z,87.26
2023-04-24T04:53:03.916Z,87.49
2023-04-24T04:54:08.742Z,87.34
2023-04-24T04:55:13.573Z,87.27
2023-04-24T04:56:38.042Z,87.03
2023-04-24T04:57:40.314Z,87.05
2023-04-24T04:58:41.773Z,87.30
2023-04-24T04:59:46.758Z,87.04
2023-04-24T05:00:53.576Z,87.49
2023-04-24T05:02:02.002Z,87.54
2023-04-24T05:03:19.042Z,87.60
2023-04-24T05:04:23.243Z,87.28
2023-04-24T05:05:24.976Z,87.29
2023-04-24T05:06:26.490Z,87.20
2023-04-24T05:07:28.115Z,86.84
2023-04-24T05:08:30.161Z,87.09
2023-04-24T05:09:31.623Z,86.74
2023-04-24T05:10:37.317Z,87.01
2023-04-24T05:11:39.009Z,86.79
2023-04-24T05:12:40.670Z,86.89
2023-04-24T05:13:42.658Z,86.90
2023-04-24T05:14:48.546Z,87.06
2023-04-24T05:15:50.256Z,87.03
2023-04-24T05:16:51.825Z,86.51
2023-04-24T05:17:56.779Z,86.21
2023-04-24T05:18:59.618Z,86.45
2023-04-24T05:20:05.725Z,86.57
2023-04-24T05:21:08.206Z,86.49
2023-04-24T05:22:11.873Z,86.47
2023-04-24T05:23:20.527Z,86.67
2023-04-24T05:24:24.534Z,86.76
2023-04-24T05:25:52.445Z,86.17
2023-04-24T05:26:55.860Z,86.44
2023-04-24T05:28:00.740Z,86.30
2023-04-24T05:29:03.012Z,86.42
2023-04-24T05:30:05.296Z,86.40
2023-04-24T05:31:06.777Z,86.13
2023-04-24T05:32:08.150Z,85.93
2023-04-24T05:33:10.208Z,86.06
2023-04-24T05:34:11.619Z,86.34
2023-04-24T05:35:16.206Z,86.34
2023-04-24T05:36:17.981Z,86.22
2023-04-24T05:37:19.699Z,86.11
2023-04-24T05:38:21.805Z,85.97
2023-04-24T05:39:25.275Z,85.51
2023-04-24T05:40:26.872Z,85.34
2023-04-24T05:41:28.479Z,85.15
2023-04-24T05:42:29.969Z,85.32
2023-04-24T05:43:32.430Z,85.55
2023-04-24T05:44:34.131Z,85.35
2023-04-24T05:45:36.489Z,85.33
2023-04-24T05:46:38.078Z,84.95
2023-04-24T05:47:39.938Z,84.98
2023-04-24T05:48:41.463Z,84.65
2023-04-24T05:49:43.192Z,84.85
2023-04-24T05:50:45.097Z,84.94
2023-04-24T05:51:47.165Z,84.97
2023-04-24T05:52:49.461Z,84.75
2023-04-24T05:53:59.449Z,84.51
2023-04-24T05:55:01.113Z,84.33
2023-04-24T05:56:04.067Z,84.05
2023-04-24T05:57:08.053Z,84.16
2023-04-24T05:58:22.616Z,84.30
2023-04-24T05:59:24.647Z,84.51
2023-04-24T06:00:27.153Z,84.52
2023-04-24T06:01:33.985Z,84.45
2023-04-24T06:02:42.140Z,84.20
2023-04-24T06:03:45.859Z,84.33
2023-04-24T06:04:48.253Z,84.09
2023-04-24T06:05:51.602Z,84.10
2023-04-24T06:06:56.203Z,84.16
2023-04-24T06:07:57.789Z,84.12
2023-04-24T06:09:02.511Z,84.31
2023-04-24T06:10:04.613Z,84.50
2023-04-24T06:11:11.222Z,84.28
2023-04-24T06:12:13.807Z,84.31
2023-04-24T06:13:32.040Z,84.71
2023-04-24T06:14:55.789Z,84.55
2023-04-24T06:16:03.065Z,84.56
2023-04-24T06:17:09.566Z,84.18
2023-04-24T06:18:15.457Z,83.69
2023-04-24T06:19:17.076Z,83.94
2023-04-24T06:20:18.823Z,84.12
2023-04-24T06:21:20.647Z,84.18
2023-04-24T06:22:22.137Z,84.38
2023-04-24T06:23:23.873Z,84.14
2023-04-24T06:24:28.823Z,84.14
2023-04-24T06:25:30.931Z,83.93
2023-04-24T06:26:32.642Z,83.73
2023-04-24T06:27:35.609Z,83.39
2023-04-24T06:28:37.933Z,83.07
2023-04-24T06:29:39.384Z,83.07
2023-04-24T06:30:41.990Z,82.83
2023-04-24T06:31:43.404Z,82.27
2023-04-24T06:32:45.723Z,81.96
2023-04-24T06:33:49.060Z,81.98
2023-04-24T06:34:53.885Z,82.15
2023-04-24T06:35:55.458Z,81.94
2023-04-24T06:36:57.124Z,81.94
2023-04-24T06:37:58.567Z,81.67
2023-04-24T06:39:00.305Z,81.55
2023-04-24T06:40:01.715Z,81.21
2023-04-24T06:41:05.330Z,80.97
2023-04-24T06:42:06.899Z,80.50
2023-04-24T06:43:09.951Z,80.66
2023-04-24T06:44:11.637Z,80.74
2023-04-24T06:45:13.054Z,80.81
2023-04-24T06:46:14.738Z,80.47
2023-04-24T06:47:16.251Z,80.47
2023-04-24T06:48:17.687Z,80.52
2023-04-24T06:49:19.567Z,80.48
2023-04-24T06:50:21.171Z,80.43
2023-04-24T06:51:26.964Z,80.42
2023-04-24T06:52:28.434Z,80.35
2023-04-24T06:53:29.924Z,80.10
2023-04-24T06:54:31.636Z,80.21
2023-04-24T06:55:33.128Z,80.14
2023-04-24T06:56:34.816Z,80.05
2023-04-24T06:57:36.383Z,80.05
2023-04-24T06:58:37.923Z,79.65
2023-04-24T06:59:39.512Z,79.65
2023-04-24T07:00:40.948Z,80.02
2023-04-24T07:01:42.402Z,79.81
2023-04-24T07:02:43.909Z,80.11
2023-04-24T07:03:45.827Z,80.29
2023-04-24T07:04:48.072Z,80.30
2023-04-24T07:05:49.672Z,80.55
2023-04-24T07:06:51.710Z,80.52
2023-04-24T07:07:53.536Z,80.54
2023-04-24T07:08:56.284Z,80.65
2023-04-24T07:09:57.964Z,80.89
2023-04-24T07:11:00.149Z,80.99
2023-04-24T07:12:01.771Z,81.14
2023-04-24T07:13:03.429Z,81.12
2023-04-24T07:14:04.862Z,81.54
2023-04-24T07:15:08.148Z,81.35
2023-04-24T07:16:10.140Z,81.70
2023-04-24T07:17:13.500Z,81.79
2023-04-24T07:18:15.056Z,81.95
2023-04-24T07:19:16.399Z,81.98
2023-04-24T07:20:17.978Z,82.03
2023-04-24T07:21:19.431Z,82.17
2023-04-24T07:22:21.165Z,82.45
2023-04-24T07:23:22.564Z,82.41
2023-04-24T07:24:26.783Z,82.58
2023-04-24T07:25:28.591Z,82.48
2023-04-24T07:26:31.030Z,82.36
2023-04-24T07:27:33.233Z,82.65
2023-04-24T07:28:34.704Z,82.90
2023-04-24T07:29:36.082Z,83.04
2023-04-24T07:30:37.808Z,83.08
2023-04-24T07:31:39.317Z,83.51
2023-04-24T07:32:40.819Z,83.67
2023-04-24T07:33:42.271Z,83.66
2023-04-24T07:34:43.829Z,83.76
2023-04-24T07:35:45.760Z,83.79
2023-04-24T07:36:47.662Z,84.14
2023-04-24T07:37:49.224Z,84.16
2023-04-24T07:38:50.673Z,84.25
2023-04-24T07:39:52.195Z,84.56
2023-04-24T07:40:53.896Z,84.42
2023-04-24T07:41:55.284Z,84.66
2023-04-24T07:42:56.738Z,84.71
2023-04-24T07:43:58.849Z,84.67
2023-04-24T07:45:00.383Z,85.00
2023-04-24T07:46:02.213Z,85.06
2023-04-24T07:47:03.771Z,84.79
2023-04-24T07:48:05.880Z,84.98
2023-04-24T07:49:13.690Z,85.25
2023-04-24T07:50:15.980Z,85.39
2023-04-24T07:51:17.451Z,85.54
2023-04-24T07:52:18.865Z,85.43
2023-04-24T07:53:20.378Z,85.82
2023-04-24T07:54:21.795Z,86.24
2023-04-24T07:55:24.724Z,86.14
2023-04-24T07:56:31.653Z,86.17
2023-04-24T07:57:33.123Z,86.36
2023-04-24T07:58:35.168Z,86.37
2023-04-24T07:59:36.614Z,86.77
2023-04-24T08:00:38.256Z,86.46
2023-04-24T08:01:40.404Z,86.98
2023-04-24T08:02:41.937Z,87.07
2023-04-24T08:03:44.081Z,86.97
2023-04-24T08:04:45.909Z,87.32
2023-04-24T08:05:47.668Z,87.17
2023-04-24T08:06:49.447Z,87.33
2023-04-24T08:07:50.980Z,87.84
2023-04-24T08:08:52.398Z,87.59
2023-04-24T08:09:54.184Z,88.14
2023-04-24T08:10:55.618Z,87.92
2023-04-24T08:11:57.307Z,88.04
2023-04-24T08:12:58.776Z,88.17
2023-04-24T08:14:00.166Z,88.14
2023-04-24T08:15:01.662Z,88.06
2023-04-24T08:16:03.155Z,87.59
2023-04-24T08:17:04.671Z,87.84
2023-04-24T08:18:06.285Z,87.86
2023-04-24T08:19:08.002Z,87.81
2023-04-24T08:20:13.849Z,88.18
2023-04-24T08:21:17.446Z,87.89
2023-04-24T08:22:19.312Z,87.86
2023-04-24T08:23:20.752Z,87.70
2023-04-24T08:24:22.627Z,87.77
2023-04-24T08:25:24.965Z,88.05
2023-04-24T08:26:26.498Z,87.81
2023-04-24T08:27:27.934Z,88.31
2023-04-24T08:28:29.600Z,88.19
2023-04-24T08:29:31.088Z,88.01
2023-04-24T08:30:32.554Z,88.27
2023-04-24T08:31:34.154Z,88.22
2023-04-24T08:32:36.981Z,88.21
2023-04-24T08:33:38.401Z,87.86
2023-04-24T08:34:39.815Z,88.26
2023-04-24T08:35:41.280Z,88.28
2023-04-24T08:36:47.011Z,89.53
2023-04-24T08:37:49.611Z,88.45
2023-04-24T08:38:51.071Z,88.64
2023-04-24T08:39:53.135Z,88.63
2023-04-24T08:40:55.100Z,88.59
2023-04-24T08:41:56.518Z,88.62
2023-04-24T08:42:59.810Z,88.34
2023-04-24T08:44:02.732Z,88.11
2023-04-24T08:45:04.649Z,88.30
2023-04-24T08:46:10.954Z,88.71
2023-04-24T08:47:15.873Z,88.37
2023-04-24T08:48:29.681Z,87.67
2023-04-24T08:49:33.653Z,87.92
2023-04-24T08:50:35.261Z,87.99
2023-04-24T08:51:38.097Z,87.78
2023-04-24T08:52:39.871Z,86.94
2023-04-24T08:53:42.020Z,86.95
2023-04-24T08:54:45.871Z,86.72
2023-04-24T08:55:48.787Z,86.37
2023-04-24T08:56:53.843Z,86.38
2023-04-24T08:57:56.179Z,86.12
2023-04-24T08:58:58.107Z,85.54
2023-04-24T09:00:00.730Z,85.62
2023-04-24T09:01:03.475Z,85.69
2023-04-24T09:02:05.836Z,85.70
2023-04-24T09:03:07.555Z,85.96
2023-04-24T09:04:11.361Z,85.64
2023-04-24T09:05:14.298Z,85.68
2023-04-24T09:06:18.555Z,85.56
2023-04-24T09:07:24.619Z,85.25
2023-04-24T09:08:28.388Z,85.41
2023-04-24T09:09:33.154Z,84.69
2023-04-24T09:10:35.325Z,84.14
2023-04-24T09:11:36.997Z,84.39
2023-04-24T09:12:38.453Z,84.66
2023-04-24T09:13:40.153Z,84.28
2023-04-24T09:14:45.282Z,83.82
2023-04-24T09:15:46.916Z,83.03
2023-04-24T09:16:48.814Z,82.86
2023-04-24T09:17:50.673Z,82.76
2023-04-24T09:18:52.574Z,83.08
2023-04-24T09:19:55.967Z,83.48
2023-04-24T09:21:02.876Z,83.84
2023-04-24T09:22:09.502Z,83.68
2023-04-24T09:23:16.468Z,83.58
2023-04-24T09:24:22.708Z,84.06
2023-04-24T09:25:34.755Z,83.48
2023-04-24T09:26:36.980Z,83.47
2023-04-24T09:27:46.825Z,83.49
2023-04-24T09:28:48.306Z,83.66
2023-04-24T09:29:56.972Z,83.99
2023-04-24T09:31:15.264Z,83.83
2023-04-24T09:32:22.238Z,84.11
2023-04-24T09:33:23.705Z,83.77
2023-04-24T09:34:27.273Z,83.85
2023-04-24T09:35:28.625Z,83.94
2023-04-24T09:36:37.446Z,83.64
2023-04-24T09:37:41.704Z,83.24
2023-04-24T09:38:43.197Z,82.84
2023-04-24T09:39:45.135Z,83.21
2023-04-24T09:40:46.676Z,83.26
2023-04-24T09:41:53.506Z,83.32
2023-04-24T09:43:01.403Z,83.56
2023-04-24T09:44:21.338Z,83.72
2023-04-24T09:45:28.685Z,83.35
2023-04-24T09:46:33.934Z,83.54
2023-04-24T09:47:40.222Z,83.17
2023-04-24T09:48:41.701Z,83.24
2023-04-24T09:49:44.198Z,83.75
2023-04-24T09:50:48.598Z,83.62
2023-04-24T09:51:50.137Z,83.52
2023-04-24T09:53:01.635Z,83.08
2023-04-24T09:54:05.076Z,83.21
2023-04-24T09:55:12.417Z,82.95
2023-04-24T09:56:13.943Z,83.06
2023-04-24T09:57:15.364Z,82.93
2023-04-24T09:58:16.880Z,82.62
2023-04-24T09:59:20.187Z,82.09
2023-04-24T10:00:32.870Z,82.16
2023-04-24T10:01:34.989Z,82.26
2023-04-24T10:02:36.631Z,82.24
2023-04-24T10:03:38.600Z,82.05
2023-04-24T10:04:40.344Z,81.43
2023-04-24T10:05:43.799Z,81.21
2023-04-24T10:06:46.312Z,80.54
2023-04-24T10:07:49.568Z,80.62
2023-04-24T10:08:51.735Z,80.36
2023-04-24T10:09:53.634Z,80.36
2023-04-24T10:10:55.055Z,80.46
2023-04-24T10:11:56.503Z,80.30
2023-04-24T10:12:58.070Z,80.08
2023-04-24T10:13:59.822Z,80.07
2023-04-24T10:15:02.201Z,79.45
2023-04-24T10:16:04.387Z,79.35
2023-04-24T10:17:06.598Z,79.09
2023-04-24T10:18:09.751Z,79.47
2023-04-24T10:19:13.382Z,80.04
2023-04-24T10:20:14.831Z,80.02
2023-04-24T10:21:18.354Z,80.12
2023-04-24T10:22:20.498Z,79.73
2023-04-24T10:23:22.553Z,79.85
2023-04-24T10:24:24.159Z,79.95
2023-04-24T10:25:30.666Z,79.64
2023-04-24T10:26:32.328Z,79.33
2023-04-24T10:27:35.052Z,78.63
2023-04-24T10:28:37.220Z,78.73
2023-04-24T10:29:40.505Z,78.69
2023-04-24T10:30:43.352Z,78.26
2023-04-24T10:31:48.445Z,78.02
2023-04-24T10:32:50.172Z,77.58
2023-04-24T10:33:54.224Z,77.15
2023-04-24T10:34:56.886Z,77.92
2023-04-24T10:35:59.120Z,77.59
2023-04-24T10:37:00.670Z,77.39
2023-04-24T10:38:06.928Z,77.13
2023-04-24T10:39:11.829Z,76.77
2023-04-24T10:40:18.610Z,76.37
2023-04-24T10:41:23.398Z,76.62
2023-04-24T10:42:27.733Z,76.36
2023-04-24T10:43:29.389Z,75.73
2023-04-24T10:44:37.122Z,75.23
2023-04-24T10:45:39.416Z,75.00
2023-04-24T10:46:45.785Z,74.43
2023-04-24T10:48:03.002Z,73.88
2023-04-24T10:49:08.926Z,72.76
2023-04-24T10:50:11.196Z,72.86
2023-04-24T10:51:14.399Z,71.93
2023-04-24T10:52:16.964Z,72.60
2023-04-24T10:53:27.197Z,72.56
2023-04-24T10:54:29.967Z,71.47
2023-04-24T10:56:05.990Z,72.61
2023-04-24T10:57:23.050Z,72.04
2023-04-24T10:58:38.638Z,71.62
2023-04-24T10:59:40.210Z,71.73
2023-04-24T11:00:41.967Z,71.24
2023-04-24T11:01:54.187Z,70.62
2023-04-24T11:02:56.489Z,69.61
2023-04-24T11:04:00.105Z,69.68
2023-04-24T11:05:04.323Z,68.57
2023-04-24T11:06:07.918Z,67.76
2023-04-24T11:07:10.541Z,67.14
2023-04-24T11:08:14.502Z,65.32
2023-04-24T11:09:16.898Z,64.60
2023-04-24T11:10:27.526Z,64.69
2023-04-24T11:11:30.040Z,64.76
2023-04-24T11:12:35.493Z,64.49
2023-04-24T11:14:00.281Z,63.24
2023-04-24T11:15:03.100Z,62.02
2023-04-24T11:16:26.386Z,62.38
2023-04-24T11:17:35.386Z,62.73
2023-04-24T11:18:40.757Z,63.21
2023-04-24T11:20:48.551Z,63.20
2023-04-24T11:22:02.782Z,63.78
2023-04-24T11:23:05.143Z,63.70
2023-04-24T11:24:25.931Z,64.23
2023-04-24T11:25:31.183Z,64.33
2023-04-24T11:26:38.679Z,64.22
2023-04-24T11:27:42.293Z,64.03
2023-04-24T11:28:51.000Z,63.87
2023-04-24T11:29:55.707Z,63.70
2023-04-24T11:30:57.546Z,63.48
2023-04-24T11:32:15.266Z,61.89
2023-04-24T11:33:21.041Z,62.76
2023-04-24T11:34:23.622Z,62.64
2023-04-24T11:35:25.556Z,62.28
2023-04-24T11:36:27.098Z,63.06
2023-04-24T11:37:39.960Z,62.92
2023-04-24T11:38:41.999Z,62.85
2023-04-24T11:39:43.597Z,62.82
2023-04-24T11:40:46.290Z,63.00
2023-04-24T11:41:47.980Z,63.09
2023-04-24T11:42:55.801Z,63.02
2023-04-24T11:43:58.321Z,62.62
2023-04-24T11:45:00.718Z,61.82
2023-04-24T11:46:02.617Z,60.60
2023-04-24T11:47:06.180Z,61.67
2023-04-24T11:48:07.848Z,61.78
2023-04-24T11:49:09.286Z,61.99
2023-04-24T11:50:15.531Z,62.03
2023-04-24T11:51:17.091Z,61.71
2023-04-24T11:52:20.051Z,61.44
2023-04-24T11:53:22.148Z,61.17
2023-04-24T11:54:23.617Z,60.96
2023-04-24T11:55:27.900Z,60.95
2023-04-24T11:56:29.985Z,61.17
2023-04-24T11:57:34.903Z,60.83
2023-04-24T11:58:37.269Z,60.71
2023-04-24T11:59:38.830Z,59.55
2023-04-24T12:00:40.318Z,58.85
2023-04-24T12:01:46.219Z,57.97
2023-04-24T12:02:49.160Z,58.19
2023-04-24T12:03:55.304Z,55.70
2023-04-24T12:04:57.243Z,53.67
2023-04-24T12:06:10.257Z,52.83
2023-04-24T12:07:12.238Z,52.99
2023-04-24T12:08:28.728Z,53.24
2023-04-24T12:09:47.527Z,52.34
2023-04-24T12:10:52.187Z,52.12
2023-04-24T12:11:57.697Z,51.28
2023-04-24T12:13:00.791Z,51.38
2023-04-24T12:14:12.695Z,50.70
2023-04-24T12:15:16.448Z,47.67
2023-04-24T12:16:17.970Z,47.22
2023-04-24T12:17:27.447Z,46.22
2023-04-24T12:18:31.180Z,45.56
2023-04-24T12:19:32.541Z,45.10
2023-04-24T12:20:34.074Z,44.78
2023-04-24T12:21:35.778Z,44.13
2023-04-24T12:22:57.385Z,44.70
2023-04-24T12:23:59.077Z,44.43
2023-04-24T12:25:05.812Z,43.99
2023-04-24T12:26:07.227Z,44.58
2023-04-24T12:27:20.903Z,45.55
2023-04-24T12:28:22.415Z,45.57
2023-04-24T12:29:24.989Z,45.19
2023-04-24T12:30:29.209Z,45.62
2023-04-24T12:31:32.623Z,45.55
2023-04-24T12:32:34.064Z,45.49
2023-04-24T12:33:36.251Z,45.60
2023-04-24T12:34:37.961Z,45.84
2023-04-24T12:35:41.340Z,46.19
2023-04-24T12:36:42.817Z,45.66
2023-04-24T12:37:47.103Z,45.55
2023-04-24T12:38:53.644Z,44.97
2023-04-24T12:39:59.701Z,45.61
2023-04-24T12:41:06.534Z,46.06
2023-04-24T12:42:07.936Z,45.62
2023-04-24T12:43:16.918Z,46.58
2023-04-24T12:44:18.938Z,45.64
2023-04-24T12:45:20.835Z,46.01
2023-04-24T12:46:22.792Z,45.20
2023-04-24T12:47:25.007Z,45.77
2023-04-24T12:48:27.409Z,45.11
2023-04-24T12:49:31.238Z,45.87
2023-04-24T12:50:32.826Z,46.05
2023-04-24T12:51:34.269Z,46.45
2023-04-24T12:52:35.768Z,45.88
2023-04-24T12:53:37.169Z,45.75
2023-04-24T12:54:38.584Z,45.69
2023-04-24T12:55:40.882Z,44.97
2023-04-24T12:56:42.322Z,45.34
2023-04-24T12:57:43.860Z,44.90
2023-04-24T12:58:45.315Z,45.51
2023-04-24T12:59:46.750Z,44.98
2023-04-24T13:00:49.116Z,45.15
2023-04-24T13:01:51.184Z,45.65
2023-04-24T13:02:52.808Z,45.67
2023-04-24T13:03:54.618Z,45.73
2023-04-24T13:04:56.206Z,44.67
2023-04-24T13:05:57.764Z,45.30
2023-04-24T13:06:59.141Z,45.10
2023-04-24T13:08:00.648Z,45.46
2023-04-24T13:09:02.231Z,45.71
2023-04-24T13:10:04.011Z,45.53
2023-04-24T13:11:05.636Z,45.38
2023-04-24T13:12:08.149Z,45.80
2023-04-24T13:13:09.702Z,46.04
2023-04-24T13:14:11.058Z,46.07
2023-04-24T13:15:12.849Z,45.27
2023-04-24T13:16:14.371Z,45.82
2023-04-24T13:17:15.819Z,45.18
2023-04-24T13:18:17.687Z,45.49
2023-04-24T13:19:19.215Z,44.79
2023-04-24T13:20:20.719Z,44.62
2023-04-24T13:21:22.107Z,45.26
2023-04-24T13:22:23.569Z,45.49
2023-04-24T13:23:25.123Z,45.55
2023-04-24T13:24:26.659Z,45.39
2023-04-24T13:25:28.499Z,45.09
2023-04-24T13:26:30.064Z,44.76
2023-04-24T13:27:31.788Z,44.71
2023-04-24T13:28:33.340Z,44.75
2023-04-24T13:29:35.043Z,44.76
2023-04-24T13:30:37.649Z,44.19
2023-04-24T13:31:39.429Z,44.42
2023-04-24T13:32:41.074Z,44.43
2023-04-24T13:33:43.153Z,43.71
2023-04-24T13:34:44.953Z,44.10
2023-04-24T13:35:46.415Z,43.80
2023-04-24T13:36:48.163Z,43.61
2023-04-24T13:37:49.806Z,42.19
2023-04-24T13:38:51.447Z,42.37
2023-04-24T13:39:52.905Z,42.63
2023-04-24T13:40:55.140Z,42.50